createdAt,value
2023-03-13T00:01:23.504Z,100886.80
2023-03-13T00:04:00.747Z,100891.20
2023-03-13T00:06:39.623Z,100891.20
2023-03-13T00:09:18.837Z,100892.00
2023-03-13T00:11:56.248Z,100899.00
2023-03-13T00:14:33.143Z,100897.80
2023-03-13T00:17:09.863Z,100893.40
2023-03-13T00:19:47.080Z,100894.40
2023-03-13T00:22:23.690Z,100893.20
2023-03-13T00:25:02.077Z,100894.00
2023-03-13T00:27:40.983Z,100894.00
2023-03-13T00:30:22.003Z,100891.60
2023-03-13T00:32:58.607Z,100894.80
2023-03-13T00:35:35.716Z,100894.60
2023-03-13T00:38:11.768Z,100897.00
2023-03-13T00:40:47.873Z,100898.40
2023-03-13T00:43:24.117Z,100899.40
2023-03-13T00:46:00.573Z,100897.20
2023-03-13T00:48:37.122Z,100893.20
2023-03-13T00:51:14.810Z,100896.20
2023-03-13T00:56:42.621Z,100904.80
2023-03-13T00:59:19.333Z,100897.00
2023-03-13T01:01:55.552Z,100892.60
2023-03-13T01:04:31.597Z,100900.20
2023-03-13T01:07:08.613Z,100893.80
2023-03-13T01:09:44.131Z,100887.00
2023-03-13T01:12:20.904Z,100885.60
2023-03-13T01:14:59.795Z,100875.40
2023-03-13T01:17:36.024Z,100873.20
2023-03-13T01:20:17.166Z,100873.60
2023-03-13T01:22:53.688Z,100869.40
2023-03-13T01:25:30.282Z,100868.40
2023-03-13T01:28:06.626Z,100867.40
2023-03-13T01:30:42.790Z,100873.80
2023-03-13T01:33:18.618Z,100871.60
2023-03-13T01:36:03.464Z,100875.00
2023-03-13T01:38:39.767Z,100870.20
2023-03-13T01:41:18.765Z,100868.80
2023-03-13T01:43:55.729Z,100868.80
2023-03-13T01:46:31.873Z,100867.60
2023-03-13T01:49:34.335Z,100861.80
2023-03-13T01:52:25.147Z,100862.80
2023-03-13T01:55:17.203Z,100865.40
2023-03-13T01:57:58.724Z,100855.60
2023-03-13T02:00:39.874Z,100848.20
2023-03-13T02:03:23.125Z,100849.20
2023-03-13T02:06:03.120Z,100852.20
2023-03-13T02:08:47.133Z,100849.40
2023-03-13T02:11:31.649Z,100848.40
2023-03-13T02:14:09.103Z,100858.40
2023-03-13T02:16:49.130Z,100860.80
2023-03-13T02:19:34.967Z,100861.20
2023-03-13T02:22:24.761Z,100864.00
2023-03-13T02:25:10.606Z,100864.40
2023-03-13T02:27:48.309Z,100864.80
2023-03-13T02:30:25.613Z,100857.00
2023-03-13T02:33:02.876Z,100857.00
2023-03-13T02:35:40.686Z,100854.60
2023-03-13T02:38:25.891Z,100846.60
2023-03-13T02:41:03.823Z,100836.40
2023-03-13T02:43:41.098Z,100830.00
2023-03-13T02:46:22.427Z,100821.80
2023-03-13T02:49:02.122Z,100814.00
2023-03-13T02:51:46.940Z,100811.20
2023-03-13T02:54:26.976Z,100816.60
2023-03-13T02:57:07.628Z,100821.00
2023-03-13T02:59:44.137Z,100821.40
2023-03-13T03:02:21.221Z,100828.40
2023-03-13T03:04:58.157Z,100830.00
2023-03-13T03:07:34.160Z,100831.60
2023-03-13T03:10:15.714Z,100839.60
2023-03-13T03:12:52.898Z,100843.00
2023-03-13T03:15:29.624Z,100846.60
2023-03-13T03:18:06.718Z,100854.20
2023-03-13T03:20:44.670Z,100853.60
2023-03-13T03:23:21.140Z,100852.60
2023-03-13T03:25:58.660Z,100850.60
2023-03-13T03:28:35.289Z,100848.00
2023-03-13T03:31:18.634Z,100854.00
2023-03-13T03:33:55.104Z,100866.00
2023-03-13T03:36:31.134Z,100869.80
2023-03-13T03:39:10.165Z,100880.00
2023-03-13T03:41:46.928Z,100890.20
2023-03-13T03:44:22.945Z,100896.60
2023-03-13T03:47:03.971Z,100893.60
2023-03-13T03:49:43.427Z,100887.20
2023-03-13T03:52:20.713Z,100888.80
2023-03-13T03:54:57.804Z,100892.40
2023-03-13T03:57:35.478Z,100893.60
2023-03-13T04:00:18.461Z,100886.20
2023-03-13T04:02:56.249Z,100887.20
2023-03-13T04:05:32.318Z,100878.80
2023-03-13T04:09:30.438Z,100884.00
2023-03-13T04:12:10.731Z,100888.40
2023-03-13T04:14:54.591Z,100893.20
2023-03-13T04:17:31.339Z,100891.40
2023-03-13T04:20:11.910Z,100894.60
2023-03-13T04:22:48.057Z,100907.40
2023-03-13T04:25:26.297Z,100904.40
2023-03-13T04:28:06.578Z,100901.60
2023-03-13T04:30:48.575Z,100895.80
2023-03-13T04:33:48.294Z,100889.00
2023-03-13T04:36:45.310Z,100887.40
2023-03-13T04:39:45.186Z,100882.80
2023-03-13T04:42:42.081Z,100877.40
2023-03-13T04:45:42.732Z,100880.40
2023-03-13T04:48:59.048Z,100882.60
2023-03-13T04:51:53.207Z,100880.80
2023-03-13T04:54:49.101Z,100868.80
2023-03-13T04:58:03.584Z,100871.80
2023-03-13T05:01:25.137Z,100875.80
2023-03-13T05:04:10.873Z,100874.40
2023-03-13T05:06:56.440Z,100872.00
2023-03-13T05:10:14.091Z,100877.80
2023-03-13T05:13:13.567Z,100882.20
2023-03-13T05:16:00.917Z,100888.40
2023-03-13T05:18:41.615Z,100889.80
2023-03-13T05:24:20.303Z,100880.20
2023-03-13T05:27:16.041Z,100878.60
2023-03-13T05:30:17.754Z,100870.60
2023-03-13T05:33:32.841Z,100871.00
2023-03-13T05:36:19.179Z,100871.60
2023-03-13T05:39:08.644Z,100877.80
2023-03-13T05:41:57.452Z,100873.60
2023-03-13T05:44:50.471Z,100870.40
2023-03-13T05:47:56.330Z,100869.80
2023-03-13T05:50:39.149Z,100870.80
2023-03-13T05:53:35.185Z,100869.00
2023-03-13T05:56:20.816Z,100860.20
2023-03-13T05:59:17.477Z,100871.80
2023-03-13T06:02:20.946Z,100874.80
2023-03-13T06:04:58.527Z,100877.20
2023-03-13T06:07:35.091Z,100879.40
2023-03-13T06:10:13.910Z,100889.20
2023-03-13T06:12:57.434Z,100894.00
2023-03-13T06:15:38.367Z,100909.60
2023-03-13T06:18:26.572Z,100912.60
2023-03-13T06:21:07.758Z,100909.60
2023-03-13T06:23:45.022Z,100907.20
2023-03-13T06:26:21.986Z,100909.20
2023-03-13T06:28:58.668Z,100912.60
2023-03-13T06:31:36.046Z,100912.40
2023-03-13T06:34:13.577Z,100909.80
2023-03-13T06:36:50.453Z,100907.00
2023-03-13T06:39:26.746Z,100907.40
2023-03-13T06:42:03.394Z,100916.80
2023-03-13T06:44:39.570Z,100918.20
2023-03-13T06:47:17.407Z,100914.60
2023-03-13T06:49:54.430Z,100917.00
2023-03-13T06:52:41.403Z,100931.20
2023-03-13T06:55:22.085Z,100931.80
2023-03-13T06:58:02.341Z,100925.00
2023-03-13T07:00:40.375Z,100917.20
2023-03-13T07:03:18.005Z,100905.60
2023-03-13T07:06:08.888Z,100908.60
2023-03-13T07:08:46.110Z,100913.80
2023-03-13T07:11:23.635Z,100914.40
2023-03-13T07:14:15.833Z,100917.60
2023-03-13T07:16:53.895Z,100928.00
2023-03-13T07:19:31.424Z,100929.00
2023-03-13T07:22:10.165Z,100921.00
2023-03-13T07:24:47.646Z,100926.60
2023-03-13T07:27:25.225Z,100930.60
2023-03-13T07:30:01.630Z,100925.80
2023-03-13T07:32:41.102Z,100926.80
2023-03-13T07:35:18.578Z,100924.40
2023-03-13T07:37:55.318Z,100923.00
2023-03-13T07:40:31.507Z,100926.60
2023-03-13T07:43:08.708Z,100920.00
2023-03-13T07:45:54.924Z,100912.40
2023-03-13T07:48:34.217Z,100915.20
2023-03-13T07:51:14.611Z,100909.80
2023-03-13T07:53:51.591Z,100909.40
2023-03-13T07:56:28.747Z,100907.00
2023-03-13T07:59:05.589Z,100909.40
2023-03-13T08:01:42.168Z,100906.80
2023-03-13T08:04:19.800Z,100905.60
2023-03-13T08:06:57.211Z,100907.40
2023-03-13T08:09:36.975Z,100904.60
2023-03-13T08:12:17.446Z,100900.80
2023-03-13T08:14:55.093Z,100897.40
2023-03-13T08:17:34.453Z,100898.20
2023-03-13T08:20:16.532Z,100895.60
2023-03-13T08:22:53.805Z,100896.00
2023-03-13T08:25:29.960Z,100891.80
2023-03-13T08:28:07.400Z,100897.40
2023-03-13T08:30:44.415Z,100900.80
2023-03-13T08:33:21.777Z,100898.20
2023-03-13T08:35:58.264Z,100894.60
2023-03-13T08:38:35.182Z,100900.80
2023-03-13T08:41:12.346Z,100909.60
2023-03-13T08:43:48.937Z,100916.20
2023-03-13T08:46:26.415Z,100910.20
2023-03-13T08:49:03.005Z,100916.60
2023-03-13T08:51:39.841Z,100921.20
2023-03-13T08:54:16.504Z,100917.00
2023-03-13T08:56:53.224Z,100918.40
2023-03-13T08:59:30.707Z,100923.20
2023-03-13T09:02:09.010Z,100928.20
2023-03-13T09:04:45.888Z,100925.00
2023-03-13T09:07:23.413Z,100923.60
2023-03-13T09:10:00.712Z,100923.00
2023-03-13T09:12:37.494Z,100921.80
2023-03-13T09:15:27.564Z,100924.40
2023-03-13T09:18:03.776Z,100923.00
2023-03-13T09:20:40.914Z,100928.20
2023-03-13T09:23:19.047Z,100927.00
2023-03-13T09:25:58.209Z,100928.40
2023-03-13T09:28:36.257Z,100925.20
2023-03-13T09:31:19.477Z,100925.40
2023-03-13T09:33:56.806Z,100927.20
2023-03-13T09:36:34.554Z,100924.40
2023-03-13T09:39:12.644Z,100915.00
2023-03-13T09:41:57.388Z,100915.60
2023-03-13T09:44:43.332Z,100921.00
2023-03-13T09:47:27.626Z,100909.60
2023-03-13T09:50:09.608Z,100901.00
2023-03-13T09:52:46.955Z,100899.20
2023-03-13T09:55:31.729Z,100898.60
2023-03-13T09:58:14.732Z,100890.00
2023-03-13T10:00:55.242Z,100887.60
2023-03-13T10:03:38.901Z,100891.40
2023-03-13T10:06:24.853Z,100897.00
2023-03-13T10:09:04.355Z,100897.20
2023-03-13T10:11:50.494Z,100905.60
2023-03-13T10:14:38.621Z,100900.80
2023-03-13T10:17:31.362Z,100897.00
2023-03-13T10:20:20.845Z,100901.00
2023-03-13T10:23:04.959Z,100897.40
2023-03-13T10:25:43.673Z,100893.40
2023-03-13T10:28:23.025Z,100889.00
2023-03-13T10:31:09.658Z,100889.00
2023-03-13T10:33:47.924Z,100895.80
2023-03-13T10:36:26.428Z,100892.80
2023-03-13T10:39:02.857Z,100889.60
2023-03-13T10:41:42.849Z,100889.80
2023-03-13T10:44:26.717Z,100888.80
2023-03-13T10:47:08.122Z,100883.00
2023-03-13T10:49:57.748Z,100883.60
2023-03-13T10:52:45.333Z,100871.80
2023-03-13T10:55:27.240Z,100866.60
2023-03-13T10:58:08.714Z,100863.60
2023-03-13T11:00:46.957Z,100859.80
2023-03-13T11:03:36.592Z,100865.20
2023-03-13T11:06:30.172Z,100866.60
2023-03-13T11:09:17.722Z,100869.20
2023-03-13T11:11:56.457Z,100871.00
2023-03-13T11:14:33.831Z,100863.00
2023-03-13T11:17:24.210Z,100861.40
2023-03-13T11:20:16.390Z,100849.00
2023-03-13T11:23:22.274Z,100842.20
2023-03-13T11:26:16.972Z,100837.00
2023-03-13T11:29:05.714Z,100842.60
2023-03-13T11:31:49.149Z,100840.00
2023-03-13T11:34:34.190Z,100829.20
2023-03-13T11:37:16.828Z,100827.00
2023-03-13T11:40:08.254Z,100824.60
2023-03-13T11:43:11.385Z,100821.40
2023-03-13T11:46:21.823Z,100819.20
2023-03-13T11:49:30.719Z,100817.40
2023-03-13T11:52:35.569Z,100819.60
2023-03-13T11:56:03.541Z,100810.40
2023-03-13T11:59:26.836Z,100810.40
2023-03-13T12:02:09.126Z,100799.40
2023-03-13T12:04:54.372Z,100796.40
2023-03-13T12:07:36.485Z,100795.60
2023-03-13T12:10:21.343Z,100791.40
2023-03-13T12:13:10.186Z,100778.80
2023-03-13T12:15:53.366Z,100773.00
2023-03-13T12:18:38.888Z,100771.80
2023-03-13T12:21:25.538Z,100759.40
2023-03-13T12:24:14.700Z,100753.00
2023-03-13T12:26:58.167Z,100751.20
2023-03-13T12:29:51.056Z,100754.00
2023-03-13T12:32:39.614Z,100753.00
2023-03-13T12:35:30.891Z,100748.00
2023-03-13T12:38:19.934Z,100744.80
2023-03-13T12:41:11.680Z,100746.60
2023-03-13T12:44:07.637Z,100740.20
2023-03-13T12:46:57.008Z,100728.40
2023-03-13T12:50:20.939Z,100712.80
2023-03-13T12:53:43.515Z,100707.20
2023-03-13T12:57:01.733Z,100694.40
2023-03-13T12:59:44.998Z,100697.40
2023-03-13T13:02:30.938Z,100685.80
2023-03-13T13:05:09.386Z,100681.60
2023-03-13T13:07:59.669Z,100679.00
2023-03-13T13:10:36.945Z,100679.40
2023-03-13T13:13:41.966Z,100678.60
2023-03-13T13:16:28.897Z,100679.00
2023-03-13T13:19:49.320Z,100668.80
2023-03-13T13:23:17.341Z,100670.60
2023-03-13T13:25:55.761Z,100657.80
2023-03-13T13:28:46.410Z,100659.00
2023-03-13T13:32:02.266Z,100663.20
2023-03-13T13:35:08.276Z,100663.00
2023-03-13T13:37:48.978Z,100654.80
2023-03-13T13:40:37.472Z,100655.20
2023-03-13T13:43:27.322Z,100645.20
2023-03-13T13:46:20.390Z,100650.20
2023-03-13T13:49:19.618Z,100646.60
2023-03-13T13:52:42.081Z,100648.80
2023-03-13T13:55:48.221Z,100630.40
2023-03-13T13:58:33.405Z,100637.00
2023-03-13T14:01:21.242Z,100631.20
2023-03-13T14:04:07.185Z,100631.40
2023-03-13T14:06:51.482Z,100632.40
2023-03-13T14:09:38.884Z,100627.40
2023-03-13T14:12:36.374Z,100616.80
2023-03-13T14:15:23.537Z,100613.20
2023-03-13T14:18:12.262Z,100603.60
2023-03-13T14:21:01.913Z,100604.00
2023-03-13T14:23:51.481Z,100602.20
2023-03-13T14:26:30.976Z,100607.20
2023-03-13T14:29:09.811Z,100602.80
2023-03-13T14:31:52.508Z,100602.40
2023-03-13T14:34:32.661Z,100599.60
2023-03-13T14:37:40.113Z,100596.20
2023-03-13T14:40:33.403Z,100593.00
2023-03-13T14:43:25.045Z,100588.40
2023-03-13T14:46:02.787Z,100582.80
2023-03-13T14:48:40.337Z,100585.40
2023-03-13T14:51:23.809Z,100589.00
2023-03-13T14:54:06.269Z,100582.40
2023-03-13T14:56:46.741Z,100578.20
2023-03-13T14:59:29.766Z,100567.00
2023-03-13T15:02:21.759Z,100561.80
2023-03-13T15:05:02.935Z,100559.40
2023-03-13T15:07:51.587Z,100560.40
2023-03-13T15:10:38.641Z,100552.40
2023-03-13T15:13:32.349Z,100550.80
2023-03-13T15:16:21.694Z,100540.80
2023-03-13T15:18:59.125Z,100537.80
2023-03-13T15:21:38.091Z,100528.60
2023-03-13T15:24:23.083Z,100529.60
2023-03-13T15:26:59.312Z,100525.60
2023-03-13T15:29:35.732Z,100526.40
2023-03-13T15:32:18.047Z,100526.00
2023-03-13T15:34:54.534Z,100530.40
2023-03-13T15:37:32.636Z,100534.00
2023-03-13T15:40:17.295Z,100530.80
2023-03-13T15:42:54.330Z,100533.40
2023-03-13T15:45:30.133Z,100528.60
2023-03-13T15:48:06.802Z,100526.60
2023-03-13T15:50:44.482Z,100528.20
2023-03-13T15:53:26.413Z,100528.40
2023-03-13T15:56:06.031Z,100525.60
2023-03-13T15:58:43.746Z,100523.20
2023-03-13T16:01:20.926Z,100521.60
2023-03-13T16:04:00.648Z,100520.80
2023-03-13T16:06:37.371Z,100524.40
2023-03-13T16:09:17.648Z,100532.60
2023-03-13T16:11:55.086Z,100530.20
2023-03-13T16:14:31.441Z,100531.20
2023-03-13T16:17:13.977Z,100522.60
2023-03-13T16:19:51.430Z,100514.40
2023-03-13T16:22:27.992Z,100518.00
2023-03-13T16:25:04.463Z,100515.20
2023-03-13T16:27:42.206Z,100512.40
2023-03-13T16:30:27.894Z,100518.60
2023-03-13T16:33:04.121Z,100521.80
2023-03-13T16:35:39.686Z,100522.20
2023-03-13T16:38:17.989Z,100514.60
2023-03-13T16:40:55.112Z,100514.80
2023-03-13T16:43:31.652Z,100513.20
2023-03-13T16:46:12.907Z,100511.20
2023-03-13T16:48:49.177Z,100507.40
2023-03-13T16:51:27.674Z,100504.40
2023-03-13T16:54:07.018Z,100504.60
2023-03-13T16:56:45.808Z,100509.20
2023-03-13T16:59:24.361Z,100500.80
2023-03-13T17:02:01.581Z,100510.00
2023-03-13T17:04:38.599Z,100511.80
2023-03-13T17:07:24.496Z,100508.60
2023-03-13T17:10:01.539Z,100505.80
2023-03-13T17:12:38.728Z,100497.40
2023-03-13T17:15:19.224Z,100496.20
2023-03-13T17:17:56.337Z,100496.00
2023-03-13T17:20:35.066Z,100491.20
2023-03-13T17:23:13.810Z,100494.40
2023-03-13T17:25:52.300Z,100504.40
2023-03-13T17:28:30.196Z,100506.00
2023-03-13T17:31:06.351Z,100504.00
2023-03-13T17:33:43.751Z,100510.00
2023-03-13T17:36:27.675Z,100501.60
2023-03-13T17:39:07.410Z,100496.40
2023-03-13T17:41:44.129Z,100492.00
2023-03-13T17:44:21.576Z,100492.40
2023-03-13T17:46:59.186Z,100487.20
2023-03-13T17:49:36.115Z,100481.00
2023-03-13T17:52:17.636Z,100477.60
2023-03-13T17:54:54.984Z,100478.60
2023-03-13T17:57:32.935Z,100475.80
2023-03-13T18:00:24.579Z,100472.60
2023-03-13T18:03:01.894Z,100476.00
2023-03-13T18:05:38.653Z,100475.80
2023-03-13T18:08:17.556Z,100469.80
2023-03-13T18:10:54.614Z,100472.20
2023-03-13T18:13:31.638Z,100475.20
2023-03-13T18:16:09.632Z,100472.60
2023-03-13T18:18:46.701Z,100468.40
2023-03-13T18:21:23.912Z,100462.40
2023-03-13T18:24:01.475Z,100460.60
2023-03-13T18:26:40.546Z,100451.40
2023-03-13T18:29:26.886Z,100453.60
2023-03-13T18:32:05.652Z,100453.40
2023-03-13T18:34:42.281Z,100454.80
2023-03-13T18:37:30.649Z,100461.60
2023-03-13T18:40:13.584Z,100463.00
2023-03-13T18:42:49.729Z,100457.00
2023-03-13T18:45:29.008Z,100456.80
2023-03-13T18:48:06.423Z,100456.60
2023-03-13T18:50:43.968Z,100455.00
2023-03-13T18:53:26.278Z,100452.00
2023-03-13T18:56:20.221Z,100453.60
2023-03-13T18:59:00.540Z,100444.80
2023-03-13T19:01:38.161Z,100440.40
2023-03-13T19:04:15.714Z,100439.40
2023-03-13T19:06:53.413Z,100442.60
2023-03-13T19:09:47.181Z,100438.60
2023-03-13T19:12:24.298Z,100438.60
2023-03-13T19:15:00.442Z,100433.00
2023-03-13T19:17:37.164Z,100429.60
2023-03-13T19:20:22.023Z,100425.80
2023-03-13T19:23:01.022Z,100426.60
2023-03-13T19:25:38.202Z,100417.20
2023-03-13T19:28:16.935Z,100410.60
2023-03-13T19:30:54.319Z,100408.40
2023-03-13T19:33:31.539Z,100404.80
2023-03-13T19:36:12.980Z,100396.20
2023-03-13T19:38:49.350Z,100392.80
2023-03-13T19:41:26.197Z,100391.40
2023-03-13T19:44:02.597Z,100386.00
2023-03-13T19:46:43.474Z,100383.80
2023-03-13T19:49:22.535Z,100382.00
2023-03-13T19:51:58.763Z,100384.00
2023-03-13T19:54:36.460Z,100391.80
2023-03-13T19:57:14.662Z,100396.40
2023-03-13T19:59:52.077Z,100393.20
2023-03-13T20:02:29.705Z,100397.20
2023-03-13T20:05:05.445Z,100398.20
2023-03-13T20:07:42.370Z,100395.80
2023-03-13T20:10:22.282Z,100389.60
2023-03-13T20:12:59.470Z,100379.20
2023-03-13T20:15:36.995Z,100380.00
2023-03-13T20:18:14.130Z,100378.80
2023-03-13T20:20:51.523Z,100383.20
2023-03-13T20:23:28.214Z,100379.40
2023-03-13T20:26:10.670Z,100369.40
2023-03-13T20:28:49.228Z,100368.00
2023-03-13T20:31:30.482Z,100367.60
2023-03-13T20:34:07.018Z,100373.60
2023-03-13T20:36:44.031Z,100368.00
2023-03-13T20:39:20.530Z,100358.60
2023-03-13T20:41:57.579Z,100362.80
2023-03-13T20:44:34.158Z,100359.80
2023-03-13T20:47:10.175Z,100355.80
2023-03-13T20:49:47.209Z,100347.80
2023-03-13T20:52:23.875Z,100346.80
2023-03-13T20:55:00.527Z,100345.80
2023-03-13T20:57:38.029Z,100347.80
2023-03-13T21:00:24.743Z,100351.00
2023-03-13T21:03:01.123Z,100351.20
2023-03-13T21:05:40.493Z,100351.00
2023-03-13T21:08:17.908Z,100356.80
2023-03-13T21:10:55.227Z,100354.00
2023-03-13T21:13:32.537Z,100364.80
2023-03-13T21:16:13.665Z,100367.00
2023-03-13T21:18:50.673Z,100359.20
2023-03-13T21:21:29.430Z,100357.20
2023-03-13T21:24:06.325Z,100357.80
2023-03-13T21:26:42.807Z,100359.40
2023-03-13T21:29:19.368Z,100356.00
2023-03-13T21:31:56.515Z,100356.20
2023-03-13T21:34:33.105Z,100350.60
2023-03-13T21:37:09.237Z,100345.80
2023-03-13T21:39:46.961Z,100346.20
2023-03-13T21:42:24.315Z,100337.80
2023-03-13T21:45:01.495Z,100331.60
2023-03-13T21:47:39.192Z,100326.00
2023-03-13T21:52:56.224Z,100307.20
2023-03-13T21:55:35.499Z,100299.40
2023-03-13T21:58:12.316Z,100295.20
2023-03-13T22:00:49.038Z,100292.00
2023-03-13T22:03:26.895Z,100277.20
2023-03-13T22:06:03.440Z,100283.20
2023-03-13T22:08:39.887Z,100288.00
2023-03-13T22:11:17.486Z,100277.80
2023-03-13T22:13:54.656Z,100263.20
2023-03-13T22:16:31.608Z,100254.60
2023-03-13T22:19:09.196Z,100256.20
2023-03-13T22:21:46.018Z,100260.60
2023-03-13T22:24:22.513Z,100256.20
2023-03-13T22:26:59.458Z,100245.20
2023-03-13T22:29:37.141Z,100247.20
2023-03-13T22:32:14.789Z,100241.40
2023-03-13T22:34:52.064Z,100236.40
2023-03-13T22:37:29.189Z,100228.40
2023-03-13T22:40:07.020Z,100228.20
2023-03-13T22:42:44.400Z,100221.80
2023-03-13T22:45:23.407Z,100212.60
2023-03-13T22:48:06.293Z,100205.80
2023-03-13T22:50:43.900Z,100199.40
2023-03-13T22:53:20.861Z,100210.60
2023-03-13T22:55:57.305Z,100192.20
2023-03-13T22:58:35.566Z,100181.80
2023-03-13T23:01:17.463Z,100174.00
2023-03-13T23:03:54.268Z,100156.60
2023-03-13T23:06:31.656Z,100152.40
2023-03-13T23:09:08.444Z,100141.40
2023-03-13T23:11:45.249Z,100140.40
2023-03-13T23:14:22.369Z,100133.00
2023-03-13T23:16:59.181Z,100127.40
2023-03-13T23:19:38.684Z,100115.00
2023-03-13T23:22:18.287Z,100099.00
2023-03-13T23:24:57.814Z,100100.00
2023-03-13T23:27:35.428Z,100096.40
2023-03-13T23:30:16.580Z,100095.80
2023-03-13T23:32:53.966Z,100086.80
2023-03-13T23:35:31.355Z,100081.60
2023-03-13T23:38:07.906Z,100082.80
2023-03-13T23:40:44.882Z,100090.20
2023-03-13T23:43:22.359Z,100082.20
2023-03-13T23:45:59.082Z,100062.80
2023-03-13T23:48:36.395Z,100058.00
2023-03-13T23:51:15.862Z,100050.60
2023-03-13T23:53:52.274Z,100046.00
2023-03-13T23:56:30.059Z,100028.00
2023-03-13T23:59:05.775Z,100019.00
